Ariel, Washington
Current Conditions -  °F | °C
As of 10:53 AM on Thursday 30 Oct 2014 (Local Time) from KSPB Reporting Station
Broken Clouds Broken Clouds  
Wind Chill: 58°   Ceiling: 6500
Heat Index: 58°   Visibility: 10mi
Dew Point: 56°   Wind: 3mph
Humidity: 93%   Direction: 250°WSW
Pressure: 29.85"   Gusts: NA
Location:  45.96°N, 122.57°W
Report Text: KSPB 301753Z AUTO 25003KT 10SM BKN065 14/13 A2985 RMK AO2 RAB01E14 SLP108 P0000 60021 T01440133 10144 20117 58012
Loading
Personal Weather Stations






























Interactive Weather Map
Tropical Storm Tracking
New forecast layout! Learn more

10-Day Weather Forecast

Advertisements
Track Severe Weather on mobile